Time;durP1;ratioP1;P1;durP2;ratioP2;P2;SDS_P1;SDS_P2;PMS_P1;PMS_P2;Temp;Humidity;BMP_temperature;BMP_pressure;BME280_temperature;BME280_humidity;BME280_pressure;Samples;Min_cycle;Max_cycle;Signal;HPM_P1;HPM_P2
2022/10/24 00:00:45;;;;;;;14.57;6.90;;;14.90;99.90;;;;;;5095634;28;20417;-73
2022/10/24 00:03:12;;;;;;;19.98;7.00;;;14.90;99.90;;;;;;5077775;28;20746;-72
2022/10/24 00:05:46;;;;;;;18.80;6.10;;;14.90;99.90;;;;;;5077380;28;20401;-74
2022/10/24 00:08:12;;;;;;;17.50;6.28;;;14.90;99.90;;;;;;5095648;28;20457;-73
2022/10/24 00:10:47;;;;;;;13.88;6.90;;;14.70;99.90;;;;;;5094417;28;20374;-72
2022/10/24 00:13:15;;;;;;;17.77;6.70;;;14.60;99.90;;;;;;5093330;28;20393;-72
2022/10/24 00:15:45;;;;;;;22.83;7.05;;;14.60;99.90;;;;;;5096210;28;20390;-73
2022/10/24 00:18:11;;;;;;;21.25;7.40;;;14.50;99.90;;;;;;5085264;28;20382;-72
2022/10/24 00:20:37;;;;;;;17.48;6.40;;;14.50;99.90;;;;;;5100520;28;20485;-73
2022/10/24 00:23:03;;;;;;;14.35;6.90;;;14.50;99.90;;;;;;5099846;28;20386;-71
2022/10/24 00:25:29;;;;;;;21.00;7.00;;;14.50;99.90;;;;;;5105048;28;20431;-72
2022/10/24 00:27:55;;;;;;;20.87;7.53;;;14.50;99.90;;;;;;5103993;28;20462;-72
2022/10/24 00:30:20;;;;;;;19.50;7.10;;;14.50;99.90;;;;;;5086714;28;20378;-72
2022/10/24 00:32:46;;;;;;;14.73;6.93;;;14.50;99.90;;;;;;5105087;28;20439;-71
2022/10/24 00:35:11;;;;;;;15.13;6.57;;;14.60;99.90;;;;;;5105216;28;20460;-73
2022/10/24 00:37:37;;;;;;;16.75;6.70;;;14.60;99.90;;;;;;5105000;28;20412;-73
2022/10/24 00:40:04;;;;;;;17.40;6.07;;;14.70;99.90;;;;;;5105618;28;20397;-73
2022/10/24 00:42:29;;;;;;;19.42;6.45;;;14.70;99.90;;;;;;5105935;28;20441;-74
2022/10/24 00:44:55;;;;;;;12.52;5.40;;;14.60;99.90;;;;;;5105021;28;20480;-71
2022/10/24 00:47:23;;;;;;;18.47;6.97;;;14.70;99.90;;;;;;5108132;28;20591;-73
2022/10/24 00:49:59;;;;;;;18.20;6.50;;;14.70;99.90;;;;;;5107435;28;20382;-72
2022/10/24 00:52:27;;;;;;;23.20;6.53;;;14.60;99.90;;;;;;5085734;28;20394;-71
2022/10/24 00:54:55;;;;;;;16.95;6.72;;;14.60;99.90;;;;;;5085615;28;20433;-72
2022/10/24 00:57:43;;;;;;;16.90;7.27;;;14.60;99.90;;;;;;5085873;28;20416;-72
2022/10/24 01:00:18;;;;;;;20.95;6.45;;;14.50;99.90;;;;;;5106516;28;20405;-72
2022/10/24 01:02:45;;;;;;;13.55;6.50;;;14.50;99.90;;;;;;5106114;28;20386;-73
2022/10/24 01:05:11;;;;;;;20.15;7.10;;;14.50;99.90;;;;;;5104306;28;20812;-72
2022/10/24 01:07:56;;;;;;;14.80;5.80;;;14.50;99.90;;;;;;5088580;28;20382;-72
2022/10/24 01:10:35;;;;;;;17.83;6.30;;;14.50;99.90;;;;;;5105996;28;20421;-73
2022/10/24 01:13:16;;;;;;;19.25;6.47;;;14.50;99.90;;;;;;5105700;28;20412;-71
2022/10/24 01:15:57;;;;;;;18.30;6.30;;;14.50;99.90;;;;;;5105021;28;20417;-73
2022/10/24 01:19:00;;;;;;;14.68;5.60;;;14.50;99.90;;;;;;5102295;28;20374;-73
2022/10/24 01:22:02;;;;;;;15.00;6.00;;;14.50;99.90;;;;;;5019399;28;20882;-73
2022/10/24 01:24:58;;;;;;;12.68;5.75;;;14.60;99.90;;;;;;5083556;28;20394;-72
2022/10/24 01:27:40;;;;;;;13.40;5.97;;;14.50;99.90;;;;;;5102527;28;20374;-73
2022/10/24 01:30:08;;;;;;;16.45;5.78;;;14.60;99.90;;;;;;5081275;28;20382;-72
2022/10/24 01:32:40;;;;;;;13.77;6.22;;;14.60;99.90;;;;;;5097862;28;20443;-72
2022/10/24 01:35:26;;;;;;;21.40;6.05;;;14.70;99.90;;;;;;5080287;28;20394;-71
2022/10/24 01:37:57;;;;;;;18.80;6.30;;;14.70;99.90;;;;;;5086962;28;20433;-71
2022/10/24 01:40:34;;;;;;;17.25;6.10;;;14.80;99.90;;;;;;5099514;28;20535;-73
2022/10/24 01:43:07;;;;;;;20.57;6.10;;;14.80;99.90;;;;;;5097896;28;20499;-73
2022/10/24 01:45:35;;;;;;;18.08;6.32;;;14.80;99.90;;;;;;5098279;28;20411;-73
2022/10/24 01:48:06;;;;;;;19.58;6.90;;;14.80;99.90;;;;;;5080395;28;20376;-73
2022/10/24 01:50:35;;;;;;;15.57;6.37;;;14.80;99.90;;;;;;5102636;28;20457;-72
2022/10/24 01:53:01;;;;;;;16.40;6.00;;;14.80;99.90;;;;;;5102435;28;21090;-72
2022/10/24 01:55:29;;;;;;;19.35;6.03;;;14.70;99.90;;;;;;5083877;28;20390;-72
2022/10/24 01:57:54;;;;;;;20.70;7.00;;;14.70;99.90;;;;;;5084107;28;20382;-72
2022/10/24 02:00:21;;;;;;;18.10;6.20;;;14.70;99.90;;;;;;5101105;28;20755;-72
2022/10/24 02:03:00;;;;;;;17.58;6.15;;;14.70;99.90;;;;;;5101030;28;20394;-72
2022/10/24 02:05:40;;;;;;;20.75;5.90;;;14.80;99.90;;;;;;5082140;28;20409;-72
2022/10/24 02:08:10;;;;;;;10.77;5.90;;;14.70;99.90;;;;;;5094747;28;20379;-72
2022/10/24 02:10:45;;;;;;;19.27;6.03;;;14.70;99.90;;;;;;5076164;28;20751;-72
2022/10/24 02:13:23;;;;;;;13.77;5.10;;;14.70;99.90;;;;;;5094417;28;20801;-72
2022/10/24 02:15:53;;;;;;;16.50;5.53;;;14.80;99.90;;;;;;5094521;28;20382;-72
2022/10/24 02:18:19;;;;;;;13.43;5.65;;;14.80;99.90;;;;;;5075993;28;20390;-73
2022/10/24 02:20:56;;;;;;;18.40;6.40;;;14.70;99.90;;;;;;5093792;28;20465;-72
2022/10/24 02:23:33;;;;;;;12.07;5.35;;;14.80;99.90;;;;;;5075494;28;20386;-72
2022/10/24 02:26:01;;;;;;;18.02;5.97;;;14.80;99.90;;;;;;5093809;28;20534;-73
2022/10/24 02:28:36;;;;;;;17.33;5.63;;;14.80;99.90;;;;;;5075665;28;20413;-73
2022/10/24 02:31:09;;;;;;;17.15;6.00;;;14.80;99.90;;;;;;5093242;28;20386;-73
2022/10/24 02:33:37;;;;;;;16.00;5.55;;;14.80;99.90;;;;;;5093460;28;20885;-72
2022/10/24 02:36:05;;;;;;;19.35;6.00;;;14.70;99.90;;;;;;5093199;28;20746;-72
2022/10/24 02:38:35;;;;;;;13.60;5.38;;;14.60;99.90;;;;;;5093014;28;20378;-71
2022/10/24 02:41:04;;;;;;;12.82;5.80;;;14.60;99.90;;;;;;5092964;28;20378;-71
2022/10/24 02:43:31;;;;;;;19.70;5.30;;;14.70;99.90;;;;;;5093323;28;20450;-72
2022/10/24 02:45:57;;;;;;;15.32;5.47;;;14.70;99.90;;;;;;5082236;22;20524;-71
2022/10/24 02:48:28;;;;;;;14.57;5.20;;;14.70;99.90;;;;;;5051045;28;20912;-72
2022/10/24 02:50:54;;;;;;;12.43;6.20;;;14.70;99.90;;;;;;5050882;28;20861;-73
2022/10/24 02:53:22;;;;;;;16.48;5.20;;;14.70;99.90;;;;;;5051067;28;20389;-72
2022/10/24 02:55:48;;;;;;;18.83;6.03;;;14.70;99.90;;;;;;5051001;28;20377;-72
2022/10/24 02:58:14;;;;;;;20.33;5.43;;;14.70;99.90;;;;;;5051133;28;20377;-72
2022/10/24 03:00:39;;;;;;;10.47;5.50;;;14.70;99.90;;;;;;5051306;28;20439;-72
2022/10/24 03:03:05;;;;;;;15.63;6.32;;;14.70;99.90;;;;;;5050817;28;20385;-73
2022/10/24 03:05:30;;;;;;;13.10;5.05;;;14.80;99.90;;;;;;5050881;28;20412;-73
2022/10/24 03:07:56;;;;;;;12.47;5.40;;;14.80;99.90;;;;;;5059571;28;20393;-73
2022/10/24 03:10:23;;;;;;;19.17;5.50;;;14.70;99.90;;;;;;5058805;28;20377;-73
2022/10/24 03:12:49;;;;;;;16.13;5.28;;;14.70;99.90;;;;;;5055852;28;20387;-72
2022/10/24 03:15:14;;;;;;;12.43;5.50;;;14.60;99.90;;;;;;5050845;28;20389;-72
2022/10/24 03:17:40;;;;;;;12.37;5.10;;;14.50;99.90;;;;;;5052103;28;20447;-74
2022/10/24 03:20:06;;;;;;;13.03;5.10;;;14.50;99.90;;;;;;5069774;28;20377;-72
2022/10/24 03:22:31;;;;;;;18.05;5.40;;;14.50;99.90;;;;;;5065187;28;20390;-72
2022/10/24 03:25:00;;;;;;;15.53;5.33;;;14.50;99.90;;;;;;5063701;28;20408;-74
2022/10/24 03:27:26;;;;;;;14.60;5.53;;;14.60;99.90;;;;;;5057829;28;20417;-73
2022/10/24 03:29:52;;;;;;;13.68;6.00;;;14.60;99.90;;;;;;5054403;28;20389;-71
2022/10/24 03:32:17;;;;;;;14.32;5.25;;;14.60;99.90;;;;;;5050747;28;20461;-72
2022/10/24 03:34:43;;;;;;;15.25;5.95;;;14.60;99.90;;;;;;5050493;28;20863;-70
2022/10/24 03:37:09;;;;;;;21.03;5.70;;;14.50;99.90;;;;;;5050398;28;20750;-72
2022/10/24 03:39:34;;;;;;;19.57;6.00;;;14.40;99.90;;;;;;5050482;28;20376;-71
2022/10/24 03:42:00;;;;;;;17.13;5.87;;;14.50;99.90;;;;;;5050521;28;20869;-71
2022/10/24 03:44:26;;;;;;;12.13;5.50;;;14.40;99.90;;;;;;5050282;28;20378;-73
2022/10/24 03:46:51;;;;;;;16.83;6.10;;;14.40;99.90;;;;;;5050380;28;20797;-71
2022/10/24 03:49:17;;;;;;;14.05;4.97;;;14.40;99.90;;;;;;5050775;28;20431;-72
2022/10/24 03:51:42;;;;;;;11.03;5.30;;;14.40;99.90;;;;;;5054790;28;20374;-73
2022/10/24 03:54:08;;;;;;;16.17;5.77;;;14.50;99.90;;;;;;5054497;28;20381;-73
2022/10/24 03:56:34;;;;;;;11.73;4.72;;;14.40;99.90;;;;;;5054689;28;20397;-72
2022/10/24 03:58:59;;;;;;;13.10;5.10;;;14.40;99.90;;;;;;5036414;28;20434;-72
2022/10/24 04:01:25;;;;;;;20.60;5.50;;;14.40;99.90;;;;;;5053883;28;20873;-71
2022/10/24 04:03:50;;;;;;;23.43;5.37;;;14.30;99.90;;;;;;5054381;28;20947;-74
2022/10/24 04:06:16;;;;;;;19.80;5.20;;;14.30;99.90;;;;;;5054423;28;20422;-74
2022/10/24 04:08:41;;;;;;;13.18;5.50;;;14.30;99.90;;;;;;5054454;28;20742;-73
2022/10/24 04:11:07;;;;;;;18.20;6.10;;;14.30;99.90;;;;;;5036368;28;20834;-74
2022/10/24 04:13:34;;;;;;;11.97;5.10;;;14.20;99.90;;;;;;5054141;28;20377;-72
2022/10/24 04:15:59;;;;;;;15.03;5.30;;;14.30;99.90;;;;;;5054489;28;20909;-72
2022/10/24 04:18:25;;;;;;;12.17;5.30;;;14.30;99.90;;;;;;5054032;28;20393;-71
2022/10/24 04:20:50;;;;;;;12.40;5.03;;;14.40;99.90;;;;;;5053920;28;20421;-74
2022/10/24 04:23:16;;;;;;;15.65;5.25;;;14.30;99.90;;;;;;5054487;28;20458;-72
2022/10/24 04:25:42;;;;;;;14.02;5.10;;;14.30;99.90;;;;;;5054059;28;20500;-73
2022/10/24 04:28:08;;;;;;;11.27;4.82;;;14.30;99.90;;;;;;5053559;28;20788;-72
2022/10/24 04:30:33;;;;;;;19.42;5.35;;;14.30;99.90;;;;;;5053399;28;20404;-74
2022/10/24 04:32:59;;;;;;;17.40;4.87;;;14.30;99.90;;;;;;5053493;28;20423;-71
2022/10/24 04:35:25;;;;;;;15.00;5.20;;;14.40;99.90;;;;;;5053425;28;20385;-72
2022/10/24 04:37:51;;;;;;;15.37;5.10;;;14.30;99.90;;;;;;5053746;28;20433;-73
2022/10/24 04:40:16;;;;;;;17.25;4.80;;;14.40;99.90;;;;;;5053751;28;20386;-73
2022/10/24 04:42:42;;;;;;;18.88;5.70;;;14.40;99.90;;;;;;5053260;28;20468;-72
2022/10/24 04:45:08;;;;;;;10.53;4.77;;;14.40;99.90;;;;;;5054770;28;20897;-71
2022/10/24 04:47:34;;;;;;;15.13;5.20;;;14.40;99.90;;;;;;5056352;28;20957;-72
2022/10/24 04:49:59;;;;;;;19.73;4.85;;;14.40;99.90;;;;;;5054543;28;20467;-72
2022/10/24 04:52:25;;;;;;;15.93;5.10;;;14.30;99.90;;;;;;5055196;28;20385;-72
2022/10/24 04:54:50;;;;;;;10.27;4.47;;;14.30;99.90;;;;;;5055874;28;20397;-73
2022/10/24 04:57:16;;;;;;;11.35;4.57;;;14.20;99.90;;;;;;5041989;28;20401;-72
2022/10/24 04:59:41;;;;;;;13.65;5.03;;;14.20;99.90;;;;;;5065018;28;20389;-71
2022/10/24 05:02:07;;;;;;;12.73;5.03;;;14.20;99.90;;;;;;5064753;28;20381;-72
2022/10/24 05:04:33;;;;;;;13.67;4.23;;;14.40;99.90;;;;;;5040474;28;20447;-73
2022/10/24 05:06:58;;;;;;;16.95;4.60;;;14.40;99.70;;;;;;5054264;28;20465;-73
2022/10/24 05:09:24;;;;;;;13.65;4.82;;;14.40;99.00;;;;;;5053420;28;20467;-73
2022/10/24 05:11:49;;;;;;;8.98;4.20;;;14.50;98.60;;;;;;5035342;28;20386;-73
2022/10/24 05:14:15;;;;;;;14.10;4.87;;;14.50;95.40;;;;;;5053013;28;20378;-72
2022/10/24 05:16:40;;;;;;;12.83;4.67;;;14.50;96.00;;;;;;5053287;28;20389;-73
2022/10/24 05:19:06;;;;;;;15.30;4.40;;;14.60;94.20;;;;;;5053350;28;20443;-74
2022/10/24 05:21:32;;;;;;;13.40;4.05;;;14.60;92.10;;;;;;5052974;28;20401;-70
2022/10/24 05:23:58;;;;;;;15.05;4.43;;;14.60;91.40;;;;;;5053052;28;20757;-72
2022/10/24 05:26:36;;;;;;;11.20;4.00;;;14.60;92.20;;;;;;5035837;28;20758;-73
2022/10/24 05:29:02;;;;;;;12.60;3.97;;;14.60;90.90;;;;;;5034922;28;20900;-72
2022/10/24 05:31:27;;;;;;;8.93;4.00;;;14.60;89.40;;;;;;5052440;28;20460;-72
2022/10/24 05:33:53;;;;;;;7.63;3.83;;;14.60;88.50;;;;;;5052591;28;20754;-72
2022/10/24 05:36:18;;;;;;;11.48;4.32;;;14.60;88.90;;;;;;5053703;28;20392;-72
2022/10/24 05:38:44;;;;;;;10.00;4.07;;;14.60;87.20;;;;;;5035423;28;20758;-72
2022/10/24 05:41:10;;;;;;;9.15;3.97;;;14.70;87.20;;;;;;5043568;28;20392;-72
2022/10/24 05:43:35;;;;;;;12.70;4.30;;;14.70;85.60;;;;;;5071268;28;20425;-72
2022/10/24 05:46:01;;;;;;;8.90;3.60;;;14.70;86.10;;;;;;5067939;28;20440;-72
2022/10/24 05:48:27;;;;;;;12.65;4.28;;;14.70;85.50;;;;;;5047517;28;20731;-73
2022/10/24 05:50:56;;;;;;;13.55;4.20;;;14.70;85.70;;;;;;5052723;28;20374;-72
2022/10/24 05:53:23;;;;;;;14.45;3.92;;;14.60;86.90;;;;;;5052565;28;20387;-72
2022/10/24 05:55:49;;;;;;;14.10;4.18;;;14.60;86.50;;;;;;5034014;28;20398;-73
2022/10/24 05:58:19;;;;;;;14.05;4.30;;;14.70;85.40;;;;;;5051989;28;20390;-72
2022/10/24 06:00:46;;;;;;;12.13;4.15;;;14.70;84.00;;;;;;5052198;28;20909;-72
2022/10/24 06:03:11;;;;;;;16.08;3.80;;;14.70;83.30;;;;;;5051616;28;20405;-72
2022/10/24 06:05:37;;;;;;;12.97;3.97;;;14.80;81.90;;;;;;5051736;28;20474;-72
2022/10/24 06:08:04;;;;;;;6.43;3.50;;;14.80;80.90;;;;;;5051319;28;20544;-72
2022/10/24 06:10:30;;;;;;;13.25;3.85;;;14.70;80.30;;;;;;5051861;28;20404;-73
2022/10/24 06:12:55;;;;;;;10.75;3.55;;;14.80;79.10;;;;;;5051111;28;20397;-73
2022/10/24 06:15:21;;;;;;;12.77;3.60;;;14.80;77.50;;;;;;5051620;28;20381;-73
2022/10/24 06:17:47;;;;;;;15.53;4.07;;;14.80;76.70;;;;;;5053683;28;20428;-72
2022/10/24 06:20:12;;;;;;;12.13;3.30;;;14.70;77.80;;;;;;5056754;28;20397;-74
2022/10/24 06:22:38;;;;;;;11.55;3.67;;;14.60;77.40;;;;;;5056976;28;20973;-73
2022/10/24 06:25:04;;;;;;;13.80;4.40;;;14.60;77.40;;;;;;5039401;28;20401;-72
2022/10/24 06:27:30;;;;;;;10.25;3.60;;;14.50;79.20;;;;;;5057000;28;20393;-71
2022/10/24 06:29:55;;;;;;;9.52;3.40;;;14.40;79.90;;;;;;5052847;28;20952;-72
2022/10/24 06:32:21;;;;;;;8.65;3.50;;;14.50;79.60;;;;;;5051962;28;20951;-72
2022/10/24 06:34:46;;;;;;;10.57;3.40;;;14.40;79.70;;;;;;5051511;28;20421;-73
2022/10/24 06:37:12;;;;;;;10.23;3.50;;;14.50;79.40;;;;;;5038689;28;20385;-71
2022/10/24 06:39:37;;;;;;;10.65;3.10;;;14.60;76.90;;;;;;5058850;28;20496;-71
2022/10/24 06:42:03;;;;;;;6.82;2.55;;;14.70;75.50;;;;;;5057049;28;20854;-73
2022/10/24 06:44:29;;;;;;;9.27;3.30;;;14.80;74.50;;;;;;5053983;28;20458;-72
2022/10/24 06:46:55;;;;;;;15.65;3.80;;;14.90;73.80;;;;;;5044727;28;20433;-72
2022/10/24 06:49:20;;;;;;;10.50;3.13;;;15.10;72.00;;;;;;5031918;28;20758;-73
2022/10/24 06:51:46;;;;;;;8.70;4.97;;;15.20;70.10;;;;;;5049828;28;20411;-73
2022/10/24 06:54:11;;;;;;;10.40;3.40;;;15.30;70.00;;;;;;5049988;28;20381;-71
2022/10/24 06:56:37;;;;;;;14.18;4.60;;;15.40;69.10;;;;;;5048775;28;20386;-72
2022/10/24 06:59:08;;;;;;;11.40;3.50;;;15.50;69.80;;;;;;5030988;28;20468;-73
2022/10/24 07:01:34;;;;;;;10.57;4.47;;;15.50;70.40;;;;;;5030162;28;20432;-71
2022/10/24 07:04:00;;;;;;;10.70;4.57;;;15.60;67.50;;;;;;5030599;28;20392;-72
2022/10/24 07:06:28;;;;;;;8.98;4.03;;;15.80;66.90;;;;;;5048069;28;20413;-73
2022/10/24 07:08:56;;;;;;;9.23;4.05;;;15.80;64.80;;;;;;5049201;28;20405;-73
2022/10/24 07:11:22;;;;;;;11.90;4.43;;;15.80;65.70;;;;;;5048928;28;20475;-72
2022/10/24 07:13:47;;;;;;;9.93;4.22;;;15.90;64.70;;;;;;5050665;28;20441;-72
2022/10/24 07:16:13;;;;;;;10.07;3.88;;;15.90;63.70;;;;;;5050394;28;20424;-72
2022/10/24 07:18:39;;;;;;;9.60;3.70;;;15.90;63.40;;;;;;5049407;28;20393;-72
2022/10/24 07:21:22;;;;;;;11.93;3.10;;;16.00;62.80;;;;;;5049096;28;20897;-72
2022/10/24 07:23:50;;;;;;;15.98;4.38;;;16.10;60.40;;;;;;5049576;28;20535;-73
2022/10/24 07:26:16;;;;;;;8.98;3.10;;;16.20;59.80;;;;;;5053171;28;20462;-73
2022/10/24 07:28:45;;;;;;;8.77;3.30;;;16.20;59.60;;;;;;5053205;28;20803;-73
2022/10/24 07:31:13;;;;;;;13.93;3.20;;;16.20;58.10;;;;;;5052901;28;20802;-72
2022/10/24 07:33:39;;;;;;;10.35;3.10;;;16.30;56.60;;;;;;5052919;28;20781;-72
2022/10/24 07:36:06;;;;;;;8.57;3.08;;;16.40;56.60;;;;;;5052939;28;21096;-71
2022/10/24 07:38:31;;;;;;;8.27;3.40;;;16.40;55.60;;;;;;5034805;28;20397;-72
2022/10/24 07:41:01;;;;;;;8.35;2.97;;;16.30;56.30;;;;;;5052948;28;20488;-71
2022/10/24 07:43:26;;;;;;;7.82;2.40;;;16.40;55.90;;;;;;5052995;28;20421;-72
2022/10/24 07:45:52;;;;;;;9.00;3.03;;;16.50;54.20;;;;;;5050841;28;20927;-72
2022/10/24 07:48:18;;;;;;;9.23;3.30;;;16.60;53.00;;;;;;5053035;28;20383;-74
2022/10/24 07:50:45;;;;;;;9.68;3.40;;;16.70;52.50;;;;;;5052727;28;20464;-73
2022/10/24 07:53:12;;;;;;;9.05;3.17;;;16.70;52.40;;;;;;5033837;28;20397;-73
2022/10/24 07:55:38;;;;;;;8.82;3.10;;;16.80;50.70;;;;;;5052583;28;20411;-72
2022/10/24 07:58:04;;;;;;;9.75;3.17;;;16.80;50.10;;;;;;5052877;28;20390;-73
2022/10/24 08:00:30;;;;;;;7.82;2.92;;;17.00;49.30;;;;;;5052618;28;20391;-72
2022/10/24 08:02:56;;;;;;;13.27;3.40;;;17.10;47.40;;;;;;5052817;28;20400;-73
2022/10/24 08:05:21;;;;;;;12.73;3.60;;;17.20;47.40;;;;;;5052398;28;20823;-72
2022/10/24 08:07:47;;;;;;;8.40;2.40;;;17.30;47.70;;;;;;5059603;28;20494;-72
2022/10/24 08:10:13;;;;;;;11.45;2.63;;;17.40;46.20;;;;;;5054689;28;20380;-73
2022/10/24 08:12:39;;;;;;;9.55;2.70;;;17.40;45.70;;;;;;5073054;28;20418;-72
2022/10/24 08:15:05;;;;;;;10.32;2.90;;;17.50;45.30;;;;;;5072853;28;20399;-72
2022/10/24 08:17:30;;;;;;;8.68;2.60;;;17.50;45.00;;;;;;5072145;28;20738;-72
2022/10/24 08:19:56;;;;;;;9.77;3.42;;;17.60;43.70;;;;;;5072704;28;20375;-71
2022/10/24 08:22:22;;;;;;;12.60;3.10;;;17.70;42.90;;;;;;5071919;28;20380;-71
2022/10/24 08:24:47;;;;;;;7.73;3.13;;;17.80;43.00;;;;;;5036387;28;20406;-72
2022/10/24 08:27:13;;;;;;;12.00;2.90;;;17.70;42.10;;;;;;5035110;28;20543;-73
2022/10/24 08:29:38;;;;;;;11.98;2.83;;;17.80;41.00;;;;;;5052394;28;20726;-73
2022/10/24 08:32:08;;;;;;;11.50;2.60;;;17.80;40.70;;;;;;5052187;28;20405;-73
2022/10/24 08:34:33;;;;;;;12.18;2.70;;;17.80;40.00;;;;;;5053599;28;20392;-72
2022/10/24 08:36:59;;;;;;;11.50;2.60;;;17.90;39.60;;;;;;5052685;28;20382;-73
2022/10/24 08:39:25;;;;;;;12.23;2.55;;;18.00;38.50;;;;;;5053603;28;20454;-72
2022/10/24 08:42:02;;;;;;;12.13;2.83;;;18.00;37.70;;;;;;5053831;28;20792;-73
2022/10/24 08:44:51;;;;;;;9.40;2.90;;;18.00;38.20;;;;;;5054295;28;20443;-72
2022/10/24 08:47:36;;;;;;;13.00;2.60;;;18.00;38.10;;;;;;5035177;28;20424;-72
2022/10/24 08:50:22;;;;;;;15.63;2.75;;;18.00;37.40;;;;;;5057826;28;20919;-72
2022/10/24 08:52:53;;;;;;;7.82;2.50;;;18.10;37.70;;;;;;5056441;28;20493;-74
2022/10/24 08:55:23;;;;;;;15.23;2.87;;;18.10;37.30;;;;;;5053473;28;20452;-71
2022/10/24 08:57:52;;;;;;;13.45;2.85;;;18.10;37.20;;;;;;5053185;28;20738;-73
2022/10/24 09:00:25;;;;;;;12.85;2.40;;;18.10;36.90;;;;;;5053513;28;20440;-72
2022/10/24 09:03:00;;;;;;;11.02;2.30;;;18.10;36.70;;;;;;5053308;28;20382;-71
2022/10/24 09:05:30;;;;;;;9.40;2.80;;;18.10;36.70;;;;;;5053303;28;20723;-72
2022/10/24 09:08:03;;;;;;;10.40;3.03;;;18.20;36.50;;;;;;5053088;28;20392;-70
2022/10/24 09:10:47;;;;;;;14.18;2.67;;;18.30;35.90;;;;;;5053071;28;20382;-74
2022/10/24 09:13:14;;;;;;;10.65;2.60;;;18.60;34.90;;;;;;5053153;28;20374;-72
2022/10/24 09:15:43;;;;;;;10.70;2.40;;;18.70;34.60;;;;;;5053255;28;20393;-73
2022/10/24 09:18:21;;;;;;;17.33;3.20;;;18.80;34.90;;;;;;5054655;28;20392;-73
2022/10/24 09:20:48;;;;;;;12.25;2.60;;;18.90;33.60;;;;;;5055483;28;20389;-73
2022/10/24 09:23:16;;;;;;;13.70;2.80;;;18.90;33.50;;;;;;5053655;28;20460;-73
2022/10/24 09:25:46;;;;;;;14.73;2.90;;;18.80;33.80;;;;;;5035971;28;20397;-74
2022/10/24 09:28:12;;;;;;;10.02;2.65;;;18.80;34.20;;;;;;5035153;28;20393;-74
2022/10/24 09:30:38;;;;;;;8.68;2.40;;;18.70;34.40;;;;;;5052212;28;20390;-72
2022/10/24 09:33:39;;;;;;;7.10;2.17;;;18.70;33.60;;;;;;5052760;28;20470;-73
2022/10/24 09:36:08;;;;;;;8.30;2.20;;;18.60;33.90;;;;;;5053620;28;20472;-73
2022/10/24 09:38:36;;;;;;;7.88;2.65;;;18.60;34.20;;;;;;5052366;28;20668;-72
2022/10/24 09:41:15;;;;;;;16.27;3.40;;;18.60;34.50;;;;;;5052590;28;20390;-73
2022/10/24 09:43:44;;;;;;;14.20;3.10;;;18.60;34.80;;;;;;5034484;28;20400;-72
2022/10/24 09:46:12;;;;;;;12.85;2.50;;;18.70;34.30;;;;;;5034042;28;20413;-72
2022/10/24 09:48:47;;;;;;;10.43;2.63;;;18.80;34.40;;;;;;5051803;28;20858;-72
2022/10/24 09:51:31;;;;;;;14.32;3.10;;;18.90;34.10;;;;;;5034072;28;20479;-72
2022/10/24 09:54:17;;;;;;;15.30;3.10;;;19.10;33.90;;;;;;5052159;28;20758;-74
2022/10/24 09:56:44;;;;;;;6.53;2.10;;;19.20;33.00;;;;;;5038532;28;20631;-74
2022/10/24 09:59:29;;;;;;;9.45;3.05;;;19.40;32.30;;;;;;5053014;28;20385;-72
2022/10/24 10:02:09;;;;;;;10.57;2.72;;;19.40;32.30;;;;;;5052201;28;20385;-73
2022/10/24 10:04:36;;;;;;;16.40;2.42;;;19.40;32.60;;;;;;5052671;28;20381;-73
2022/10/24 10:07:09;;;;;;;9.90;3.37;;;19.30;32.90;;;;;;5053370;28;20413;-72
2022/10/24 10:09:40;;;;;;;10.93;3.15;;;19.30;33.40;;;;;;5063159;28;20385;-73
2022/10/24 10:12:23;;;;;;;18.17;3.40;;;19.30;33.20;;;;;;5069737;28;20445;-73
2022/10/24 10:14:48;;;;;;;12.67;2.80;;;19.20;33.20;;;;;;5065133;28;20397;-73
2022/10/24 10:17:25;;;;;;;14.87;2.90;;;19.20;33.50;;;;;;5060578;28;20391;-73
2022/10/24 10:19:52;;;;;;;17.45;3.00;;;19.20;33.80;;;;;;5051820;28;20498;-72
2022/10/24 10:22:30;;;;;;;9.68;2.75;;;19.30;33.80;;;;;;5035140;28;20785;-73
2022/10/24 10:24:57;;;;;;;11.52;2.97;;;19.40;32.60;;;;;;5051818;28;20377;-72
2022/10/24 10:27:33;;;;;;;14.82;2.70;;;19.40;32.90;;;;;;5051127;28;20472;-73
2022/10/24 10:30:11;;;;;;;14.40;3.30;;;19.40;32.30;;;;;;5051108;28;20390;-73
2022/10/24 10:32:59;;;;;;;17.20;2.75;;;19.30;32.90;;;;;;5033585;28;20385;-72
2022/10/24 10:35:43;;;;;;;11.95;2.80;;;19.20;33.30;;;;;;5031990;28;20474;-74
2022/10/24 10:38:43;;;;;;;9.35;2.70;;;19.10;33.20;;;;;;5031443;28;20387;-74
2022/10/24 10:41:22;;;;;;;16.13;3.38;;;19.00;33.90;;;;;;5031592;28;20413;-73
2022/10/24 10:44:07;;;;;;;15.00;2.70;;;18.80;34.00;;;;;;5050863;28;20474;-73
2022/10/24 10:47:03;;;;;;;13.20;2.92;;;18.70;34.90;;;;;;5050907;28;20405;-73
2022/10/24 10:49:36;;;;;;;13.33;3.00;;;18.60;35.70;;;;;;5051074;28;20381;-72
2022/10/24 10:52:44;;;;;;;12.65;2.88;;;18.70;35.80;;;;;;5051390;28;20385;-73
2022/10/24 10:55:22;;;;;;;14.77;2.67;;;18.80;35.20;;;;;;4950551;29;20480;-71
2022/10/24 10:57:53;;;;;;;12.03;2.97;;;19.00;34.20;;;;;;4950413;28;20805;-72
2022/10/24 11:00:57;;;;;;;13.98;3.35;;;19.10;34.00;;;;;;5014686;28;20402;-80
2022/10/24 11:03:46;;;;;;;12.10;2.80;;;19.10;33.70;;;;;;5056802;28;20514;-75
2022/10/24 11:06:38;;;;;;;14.50;3.80;;;19.10;33.70;;;;;;5052188;28;20459;-75
2022/10/24 11:09:23;;;;;;;13.68;3.40;;;19.00;34.10;;;;;;5033616;28;20397;-76
2022/10/24 11:12:27;;;;;;;12.75;2.90;;;19.00;34.40;;;;;;5051332;28;20394;-73
2022/10/24 11:15:06;;;;;;;12.30;2.90;;;19.00;33.80;;;;;;5046997;28;20429;-74
2022/10/24 11:17:42;;;;;;;11.15;2.92;;;19.10;33.80;;;;;;5033333;28;20382;-73
2022/10/24 11:20:13;;;;;;;10.77;2.70;;;19.30;32.70;;;;;;5030494;28;20391;-73
2022/10/24 11:22:49;;;;;;;13.40;3.10;;;19.30;32.40;;;;;;5046944;28;20400;-74
2022/10/24 11:26:04;;;;;;;12.98;3.38;;;19.20;32.60;;;;;;5051195;28;20400;-73
2022/10/24 11:28:53;;;;;;;15.45;2.80;;;19.20;32.90;;;;;;5040138;28;20393;-74
2022/10/24 11:31:22;;;;;;;19.45;3.40;;;19.10;33.60;;;;;;5050818;28;20377;-73
2022/10/24 11:33:57;;;;;;;19.27;3.17;;;18.90;34.20;;;;;;5051597;28;20389;-74
2022/10/24 11:36:40;;;;;;;23.70;3.80;;;18.90;34.30;;;;;;5033045;28;20401;-73
2022/10/24 11:39:09;;;;;;;14.85;3.05;;;18.90;34.40;;;;;;5051014;28;20417;-72
2022/10/24 11:41:45;;;;;;;13.27;3.70;;;18.80;35.00;;;;;;5050790;28;20393;-73
2022/10/24 11:44:45;;;;;;;13.85;3.05;;;18.80;35.40;;;;;;5051272;28;20704;-72
2022/10/24 11:47:22;;;;;;;19.40;3.40;;;18.80;34.50;;;;;;5051529;28;20421;-74
2022/10/24 11:49:55;;;;;;;17.63;4.25;;;18.90;34.10;;;;;;5033567;28;20699;-74
2022/10/24 11:52:31;;;;;;;15.25;3.15;;;18.80;34.40;;;;;;5033220;28;20377;-74
2022/10/24 11:55:07;;;;;;;14.18;3.20;;;18.80;34.50;;;;;;5034301;28;20390;-75
2022/10/24 11:57:33;;;;;;;17.92;3.38;;;18.80;34.70;;;;;;5052641;28;20397;-74
2022/10/24 11:59:59;;;;;;;16.63;3.38;;;18.70;35.10;;;;;;5051899;28;20378;-73
2022/10/24 12:02:38;;;;;;;15.65;3.20;;;18.70;35.10;;;;;;5050158;28;20937;-71
2022/10/24 12:05:25;;;;;;;14.25;3.40;;;18.70;35.90;;;;;;5050087;28;20409;-73
2022/10/24 12:08:17;;;;;;;21.67;3.30;;;18.60;35.50;;;;;;5053471;28;20816;-73
2022/10/24 12:11:16;;;;;;;12.35;3.17;;;18.70;35.50;;;;;;5051995;28;20416;-73
2022/10/24 12:13:50;;;;;;;11.93;2.47;;;18.60;35.30;;;;;;5036941;28;20447;-72
2022/10/24 12:16:51;;;;;;;14.10;3.10;;;18.80;34.20;;;;;;5054734;28;20424;-73
2022/10/24 12:19:20;;;;;;;19.23;3.77;;;18.70;34.90;;;;;;5023162;28;20397;-74
2022/10/24 12:21:58;;;;;;;15.60;3.08;;;18.70;35.00;;;;;;5036417;28;20378;-74
2022/10/24 12:24:29;;;;;;;15.88;3.10;;;18.80;34.90;;;;;;5036490;28;20767;-73
2022/10/24 12:27:06;;;;;;;19.13;3.25;;;19.00;34.40;;;;;;5053890;28;20419;-73
2022/10/24 12:29:34;;;;;;;15.27;3.60;;;19.00;34.20;;;;;;5054555;28;20470;-74
2022/10/24 12:32:22;;;;;;;15.30;4.07;;;19.30;34.20;;;;;;5053488;28;20476;-73
2022/10/24 12:34:59;;;;;;;12.85;2.95;;;19.90;32.50;;;;;;5053888;28;20416;-73
2022/10/24 12:37:25;;;;;;;12.43;3.20;;;20.30;30.70;;;;;;5054344;28;20385;-73
2022/10/24 12:39:51;;;;;;;13.85;3.20;;;20.70;29.40;;;;;;5054754;28;20947;-74
2022/10/24 12:42:23;;;;;;;14.23;3.08;;;20.80;28.50;;;;;;5055569;28;20381;-73
2022/10/24 12:45:01;;;;;;;10.43;2.73;;;20.70;28.90;;;;;;5054592;28;20381;-73
2022/10/24 12:47:36;;;;;;;12.80;3.10;;;20.50;29.00;;;;;;5055007;28;20374;-74
2022/10/24 12:50:37;;;;;;;19.35;3.10;;;20.50;29.10;;;;;;5054728;28;20378;-73
2022/10/24 12:53:23;;;;;;;7.38;2.70;;;20.60;28.80;;;;;;4972061;28;20947;-72
2022/10/24 12:55:48;;;;;;;15.63;3.28;;;20.50;29.20;;;;;;5029888;28;20459;-73
2022/10/24 12:58:35;;;;;;;16.73;3.20;;;20.40;29.80;;;;;;5053882;28;20401;-73